createdAt,value
2022-11-27T00:02:21.657Z,99414.88
2022-11-27T00:04:48.265Z,99416.22
2022-11-27T00:07:14.908Z,99428.75
2022-11-27T00:09:41.845Z,99424.59
2022-11-27T00:12:08.662Z,99425.91
2022-11-27T00:14:35.274Z,99421.69
2022-11-27T00:17:01.930Z,99412.63
2022-11-27T00:19:29.283Z,99429.19
2022-11-27T00:21:55.889Z,99435.34
2022-11-27T00:24:22.474Z,99438.38
2022-11-27T00:26:49.817Z,99442.94
2022-11-27T00:29:16.412Z,99449.91
2022-11-27T00:31:43.198Z,99447.00
2022-11-27T00:34:11.384Z,99446.75
2022-11-27T00:36:38.643Z,99439.94
2022-11-27T00:39:06.083Z,99447.72
2022-11-27T00:41:33.523Z,99444.78
2022-11-27T00:44:00.122Z,99450.13
2022-11-27T00:46:29.887Z,99437.75
2022-11-27T00:48:57.894Z,99446.47
2022-11-27T00:51:25.898Z,99446.22
2022-11-27T00:53:53.550Z,99451.34
2022-11-27T00:56:26.196Z,99449.13
2022-11-27T00:58:53.538Z,99442.09
2022-11-27T01:01:23.998Z,99449.38
2022-11-27T01:03:51.551Z,99458.22
2022-11-27T01:06:19.447Z,99446.22
2022-11-27T01:08:46.602Z,99446.22
2022-11-27T01:11:19.386Z,99435.44
2022-11-27T01:13:46.625Z,99445.69
2022-11-27T01:16:17.397Z,99438.50
2022-11-27T01:18:45.636Z,99439.63
2022-11-27T01:21:13.706Z,99436.09
2022-11-27T01:23:40.709Z,99438.63
2022-11-27T01:26:09.375Z,99437.38
2022-11-27T01:28:36.682Z,99439.63
2022-11-27T01:31:07.350Z,99430.84
2022-11-27T01:33:34.240Z,99438.78
2022-11-27T01:36:03.803Z,99438.72
2022-11-27T01:38:31.809Z,99433.16
2022-11-27T01:41:04.510Z,99444.72
2022-11-27T01:43:50.498Z,99436.53
2022-11-27T01:46:38.182Z,99441.56
2022-11-27T01:49:10.966Z,99446.22
2022-11-27T01:51:48.991Z,99445.34
2022-11-27T01:54:17.174Z,99441.31
2022-11-27T01:56:46.163Z,99443.75
2022-11-27T01:59:13.061Z,99440.72
2022-11-27T02:01:39.821Z,99439.63
2022-11-27T02:04:06.404Z,99439.47
2022-11-27T02:06:33.042Z,99440.44
2022-11-27T02:08:59.614Z,99439.84
2022-11-27T02:11:44.733Z,99435.72
2022-11-27T02:14:19.081Z,99435.81
2022-11-27T02:17:09.411Z,99426.09
2022-11-27T02:19:38.650Z,99428.16
2022-11-27T02:22:11.783Z,99435.72
2022-11-27T02:24:50.543Z,99442.31
2022-11-27T02:27:44.725Z,99443.75
2022-11-27T02:30:11.707Z,99439.84
2022-11-27T02:32:58.503Z,99443.53
2022-11-27T02:35:39.486Z,99434.00
2022-11-27T02:38:17.212Z,99439.25
2022-11-27T02:40:59.504Z,99440.63
2022-11-27T02:43:35.478Z,99439.84
2022-11-27T02:46:05.325Z,99433.91
2022-11-27T02:48:37.084Z,99431.00
2022-11-27T02:51:06.117Z,99436.47
2022-11-27T02:53:50.648Z,99441.31
2022-11-27T02:56:21.137Z,99430.13
2022-11-27T02:58:49.279Z,99439.41
2022-11-27T03:01:20.470Z,99445.72
2022-11-27T03:03:51.749Z,99436.47
2022-11-27T03:06:26.497Z,99441.09
2022-11-27T03:09:01.895Z,99438.78
2022-11-27T03:11:30.968Z,99441.09
2022-11-27T03:14:03.515Z,99448.25
2022-11-27T03:16:58.009Z,99448.63
2022-11-27T03:19:34.039Z,99443.28
2022-11-27T03:22:02.618Z,99449.22
2022-11-27T03:24:30.619Z,99453.25
2022-11-27T03:26:59.006Z,99450.72
2022-11-27T03:29:39.547Z,99450.97
2022-11-27T03:32:07.270Z,99444.03
2022-11-27T03:34:34.359Z,99450.13
2022-11-27T03:37:01.464Z,99445.03
2022-11-27T03:39:29.903Z,99451.22
2022-11-27T03:42:24.129Z,99454.50
2022-11-27T03:45:09.422Z,99455.38
2022-11-27T03:47:51.159Z,99455.88
2022-11-27T03:50:29.562Z,99454.78
2022-11-27T03:53:32.999Z,99449.78
2022-11-27T03:56:18.203Z,99457.22
2022-11-27T03:58:55.179Z,99459.06
2022-11-27T04:01:25.190Z,99443.72
2022-11-27T04:03:52.063Z,99442.88
2022-11-27T04:06:18.745Z,99452.13
2022-11-27T04:08:47.309Z,99452.88
2022-11-27T04:11:14.830Z,99457.63
2022-11-27T04:13:41.656Z,99459.44
2022-11-27T04:16:08.703Z,99454.22
2022-11-27T04:18:35.426Z,99456.78
2022-11-27T04:21:02.235Z,99457.38
2022-11-27T04:23:28.826Z,99458.25
2022-11-27T04:25:55.398Z,99456.53
2022-11-27T04:28:22.039Z,99462.38
2022-11-27T04:30:53.345Z,99442.16
2022-11-27T04:33:19.991Z,99451.91
2022-11-27T04:35:46.604Z,99444.47
2022-11-27T04:38:13.190Z,99449.72
2022-11-27T04:40:39.814Z,99452.28
2022-11-27T04:43:06.852Z,99454.94
2022-11-27T04:45:33.478Z,99435.13
2022-11-27T04:48:00.112Z,99432.94
2022-11-27T04:50:26.796Z,99436.59
2022-11-27T04:52:53.336Z,99451.94
2022-11-27T04:55:20.085Z,99454.09
2022-11-27T04:57:46.680Z,99448.88
2022-11-27T05:00:13.820Z,99458.44
2022-11-27T05:02:40.556Z,99455.56
2022-11-27T05:05:07.676Z,99444.22
2022-11-27T05:07:34.261Z,99452.00
2022-11-27T05:10:01.089Z,99445.59
2022-11-27T05:12:27.680Z,99444.84
2022-11-27T05:14:54.274Z,99450.16
2022-11-27T05:17:20.868Z,99457.47
2022-11-27T05:19:47.609Z,99446.91
2022-11-27T05:22:14.176Z,99446.41
2022-11-27T05:24:41.123Z,99453.09
2022-11-27T05:27:08.011Z,99462.47
2022-11-27T05:29:34.610Z,99462.69
2022-11-27T05:32:01.279Z,99464.66
2022-11-27T05:34:27.891Z,99459.19
2022-11-27T05:36:55.042Z,99462.69
2022-11-27T05:39:22.190Z,99465.00
2022-11-27T05:41:48.725Z,99452.88
2022-11-27T05:44:15.512Z,99455.19
2022-11-27T05:46:43.844Z,99472.81
2022-11-27T05:49:13.520Z,99487.66
2022-11-27T05:51:41.955Z,99471.97
2022-11-27T05:54:10.866Z,99473.56
2022-11-27T05:56:37.524Z,99472.09
2022-11-27T05:59:04.101Z,99478.16
2022-11-27T06:01:30.781Z,99488.00
2022-11-27T06:03:57.454Z,99487.41
2022-11-27T06:06:24.124Z,99480.13
2022-11-27T06:08:50.678Z,99494.25
2022-11-27T06:11:19.969Z,99491.31
2022-11-27T06:13:47.820Z,99503.69
2022-11-27T06:16:23.315Z,99503.00
2022-11-27T06:18:54.590Z,99491.81
2022-11-27T06:21:23.024Z,99491.56
2022-11-27T06:23:53.019Z,99489.97
2022-11-27T06:26:22.415Z,99498.09
2022-11-27T06:28:49.926Z,99500.78
2022-11-27T06:31:19.202Z,99505.88
2022-11-27T06:33:50.220Z,99517.03
2022-11-27T06:36:18.357Z,99527.84
2022-11-27T06:38:46.101Z,99506.25
2022-11-27T06:41:15.676Z,99506.59
2022-11-27T06:43:42.914Z,99507.31
2022-11-27T06:46:13.892Z,99508.38
2022-11-27T06:48:41.112Z,99502.03
2022-11-27T06:51:08.383Z,99499.31
2022-11-27T06:53:40.480Z,99506.22
2022-11-27T06:56:09.581Z,99509.25
2022-11-27T06:58:37.164Z,99512.84
2022-11-27T07:01:08.131Z,99517.31
2022-11-27T07:03:35.129Z,99511.09
2022-11-27T07:06:03.931Z,99516.06
2022-11-27T07:08:30.967Z,99504.09
2022-11-27T07:11:03.413Z,99513.44
2022-11-27T07:13:31.229Z,99512.06
2022-11-27T07:16:02.203Z,99509.69
2022-11-27T07:18:30.629Z,99504.59
2022-11-27T07:20:57.517Z,99506.63
2022-11-27T07:23:24.069Z,99506.25
2022-11-27T07:25:50.764Z,99516.75
2022-11-27T07:28:19.102Z,99512.91
2022-11-27T07:30:46.270Z,99517.00
2022-11-27T07:33:12.814Z,99515.13
2022-11-27T07:35:39.360Z,99510.78
2022-11-27T07:38:05.942Z,99512.94
2022-11-27T07:40:32.468Z,99509.44
2022-11-27T07:43:00.638Z,99514.59
2022-11-27T07:45:27.236Z,99515.44
2022-11-27T07:47:53.890Z,99517.28
2022-11-27T07:50:20.462Z,99514.75
2022-11-27T07:52:47.287Z,99507.56
2022-11-27T07:55:14.044Z,99508.06
2022-11-27T07:57:40.822Z,99513.88
2022-11-27T08:00:08.425Z,99522.34
2022-11-27T08:02:34.973Z,99514.16
2022-11-27T08:05:01.568Z,99519.56
2022-11-27T08:07:29.612Z,99518.88
2022-11-27T08:09:58.331Z,99519.31
2022-11-27T08:12:25.698Z,99526.38
2022-11-27T08:14:52.719Z,99530.38
2022-11-27T08:17:19.487Z,99527.97
2022-11-27T08:19:46.061Z,99523.31
2022-11-27T08:22:15.104Z,99535.03
2022-11-27T08:24:42.757Z,99526.44
2022-11-27T08:27:10.692Z,99529.81
2022-11-27T08:29:38.302Z,99526.94
2022-11-27T08:32:06.178Z,99517.59
2022-11-27T08:34:32.827Z,99506.09
2022-11-27T08:36:59.488Z,99505.13
2022-11-27T08:39:26.732Z,99494.53
2022-11-27T08:41:54.241Z,99493.81
2022-11-27T08:44:20.933Z,99493.50
2022-11-27T08:46:47.593Z,99485.00
2022-11-27T08:49:14.406Z,99487.31
2022-11-27T08:51:40.998Z,99484.78
2022-11-27T08:54:07.603Z,99483.97
2022-11-27T08:56:34.465Z,99481.28
2022-11-27T08:59:01.052Z,99479.19
2022-11-27T09:01:30.496Z,99473.72
2022-11-27T09:03:57.753Z,99467.81
2022-11-27T09:06:28.115Z,99470.50
2022-11-27T09:08:59.629Z,99468.00
2022-11-27T09:11:27.308Z,99472.28
2022-11-27T09:13:53.944Z,99465.59
2022-11-27T09:16:22.884Z,99460.38
2022-11-27T09:18:51.861Z,99465.88
2022-11-27T09:21:21.179Z,99460.41
2022-11-27T09:23:48.080Z,99461.19
2022-11-27T09:26:16.880Z,99451.88
2022-11-27T09:28:44.657Z,99449.44
2022-11-27T09:31:13.856Z,99439.34
2022-11-27T09:33:41.348Z,99449.88
2022-11-27T09:36:13.722Z,99443.97
2022-11-27T09:38:40.677Z,99450.25
2022-11-27T09:41:07.369Z,99441.97
2022-11-27T09:44:00.588Z,99428.19
2022-11-27T09:46:34.944Z,99425.22
2022-11-27T09:49:05.472Z,99426.38
2022-11-27T09:51:37.576Z,99422.66
2022-11-27T09:54:15.848Z,99416.38
2022-11-27T09:56:45.777Z,99405.56
2022-11-27T09:59:17.843Z,99401.13
2022-11-27T10:01:49.365Z,99411.38
2022-11-27T10:04:19.946Z,99400.53
2022-11-27T10:07:01.649Z,99394.53
2022-11-27T10:09:31.180Z,99390.22
2022-11-27T10:11:57.768Z,99391.53
2022-11-27T10:15:04.198Z,99389.00
2022-11-27T10:17:36.855Z,99388.78
2022-11-27T10:20:09.508Z,99375.97
2022-11-27T10:23:03.170Z,99378.38
2022-11-27T10:25:45.533Z,99380.34
2022-11-27T10:28:40.500Z,99380.00
2022-11-27T10:31:22.859Z,99375.44
2022-11-27T10:33:56.305Z,99371.56
2022-11-27T10:36:30.908Z,99372.66
2022-11-27T10:39:00.039Z,99371.03
2022-11-27T10:42:18.006Z,99366.63
2022-11-27T10:44:51.119Z,99362.91
2022-11-27T10:47:20.979Z,99361.72
2022-11-27T10:49:48.603Z,99357.16
2022-11-27T10:52:17.548Z,99346.31
2022-11-27T10:54:49.741Z,99345.31
2022-11-27T10:57:30.420Z,99344.19
2022-11-27T11:00:09.346Z,99345.41
2022-11-27T11:02:38.734Z,99334.75
2022-11-27T11:08:15.814Z,99337.19
2022-11-27T11:10:50.454Z,99336.53
2022-11-27T11:13:18.667Z,99321.97
2022-11-27T11:15:54.475Z,99322.59
2022-11-27T11:18:31.822Z,99320.06
2022-11-27T11:21:08.764Z,99321.06
2022-11-27T11:23:38.333Z,99311.09
2022-11-27T11:26:26.040Z,99310.97
2022-11-27T11:28:56.651Z,99317.44
2022-11-27T11:31:37.028Z,99305.91
2022-11-27T11:34:26.419Z,99306.81
2022-11-27T11:37:01.395Z,99303.78
2022-11-27T11:39:31.851Z,99308.84
2022-11-27T11:41:58.775Z,99307.63
2022-11-27T11:44:34.109Z,99292.97
2022-11-27T11:47:00.912Z,99297.41
2022-11-27T11:49:29.224Z,99296.81
2022-11-27T11:52:24.364Z,99292.47
2022-11-27T11:54:56.842Z,99292.41
2022-11-27T11:57:35.492Z,99296.47
2022-11-27T12:00:10.034Z,99284.91
2022-11-27T12:02:54.923Z,99289.84
2022-11-27T12:05:25.896Z,99278.34
2022-11-27T12:08:04.340Z,99280.31
2022-11-27T12:10:42.970Z,99275.72
2022-11-27T12:13:35.819Z,99271.81
2022-11-27T12:16:22.786Z,99275.28
2022-11-27T12:19:22.982Z,99277.16
2022-11-27T12:21:55.283Z,99275.25
2022-11-27T12:24:49.813Z,99276.19
2022-11-27T12:27:31.707Z,99274.47
2022-11-27T12:30:04.341Z,99265.16
2022-11-27T12:32:49.393Z,99266.63
2022-11-27T12:35:21.940Z,99264.91
2022-11-27T12:37:48.497Z,99266.00
2022-11-27T12:40:23.751Z,99275.22
2022-11-27T12:42:56.924Z,99272.69
2022-11-27T12:45:31.518Z,99270.31
2022-11-27T12:48:07.163Z,99272.47
2022-11-27T12:50:40.467Z,99256.84
2022-11-27T12:53:36.332Z,99266.63
2022-11-27T12:56:06.230Z,99271.72
2022-11-27T12:58:39.064Z,99259.88
2022-11-27T13:01:26.523Z,99264.78
2022-11-27T13:04:06.183Z,99262.06
2022-11-27T13:06:42.146Z,99252.38
2022-11-27T13:09:15.778Z,99262.59
2022-11-27T13:11:44.079Z,99262.22
2022-11-27T13:14:22.379Z,99266.31
2022-11-27T13:16:54.303Z,99260.91
2022-11-27T13:19:33.505Z,99258.53
2022-11-27T13:22:04.402Z,99261.16
2022-11-27T13:24:31.114Z,99257.03
2022-11-27T13:27:02.009Z,99266.44
2022-11-27T13:29:33.278Z,99258.50
2022-11-27T13:32:03.021Z,99253.44
2022-11-27T13:34:33.086Z,99258.66
2022-11-27T13:37:06.428Z,99260.34
2022-11-27T13:39:39.053Z,99267.75
2022-11-27T13:42:11.725Z,99265.72
2022-11-27T13:44:43.528Z,99264.59
2022-11-27T13:47:22.207Z,99263.31
2022-11-27T13:50:01.292Z,99266.13
2022-11-27T13:52:29.624Z,99262.03
2022-11-27T13:54:59.054Z,99274.81
2022-11-27T13:57:27.266Z,99266.06
2022-11-27T14:00:03.682Z,99266.72
2022-11-27T14:03:02.829Z,99268.66
2022-11-27T14:05:45.156Z,99263.06
2022-11-27T14:08:31.560Z,99267.28
2022-11-27T14:11:05.808Z,99264.19
2022-11-27T14:13:45.371Z,99258.47
2022-11-27T14:16:22.371Z,99262.13
2022-11-27T14:18:51.987Z,99262.88
2022-11-27T14:21:31.047Z,99264.72
2022-11-27T14:23:57.934Z,99258.25
2022-11-27T14:26:25.554Z,99261.09
2022-11-27T14:28:55.096Z,99263.56
2022-11-27T14:31:32.179Z,99268.78
2022-11-27T14:34:21.935Z,99262.44
2022-11-27T14:36:52.365Z,99263.19
2022-11-27T14:39:29.949Z,99261.66
2022-11-27T14:42:01.481Z,99264.34
2022-11-27T14:44:28.833Z,99267.19
2022-11-27T14:46:57.922Z,99264.41
2022-11-27T14:49:27.419Z,99265.56
2022-11-27T14:52:02.960Z,99265.56
2022-11-27T14:54:34.523Z,99266.84
2022-11-27T14:57:02.151Z,99269.00
2022-11-27T14:59:28.764Z,99261.06
2022-11-27T15:02:03.076Z,99253.41
2022-11-27T15:04:37.623Z,99253.28
2022-11-27T15:07:15.300Z,99250.59
2022-11-27T15:09:51.053Z,99249.72
2022-11-27T15:12:22.466Z,99257.38
2022-11-27T15:15:29.682Z,99252.53
2022-11-27T15:18:06.674Z,99263.06
2022-11-27T15:20:42.518Z,99248.66
2022-11-27T15:23:17.665Z,99264.63
2022-11-27T15:25:47.801Z,99258.16
2022-11-27T15:28:23.356Z,99258.88
2022-11-27T15:30:50.728Z,99262.69
2022-11-27T15:33:31.642Z,99261.16
2022-11-27T15:36:16.991Z,99262.56
2022-11-27T15:38:45.544Z,99262.13
2022-11-27T15:41:25.519Z,99256.66
2022-11-27T15:43:52.559Z,99257.81
2022-11-27T15:46:31.686Z,99253.09
2022-11-27T15:48:58.547Z,99263.88
2022-11-27T15:51:25.143Z,99260.06
2022-11-27T15:53:51.808Z,99262.03
2022-11-27T15:56:19.456Z,99262.91
2022-11-27T15:58:46.206Z,99259.22
2022-11-27T16:01:12.845Z,99255.56
2022-11-27T16:03:40.597Z,99258.81
2022-11-27T16:06:08.971Z,99259.81
2022-11-27T16:08:36.254Z,99264.19
2022-11-27T16:11:06.209Z,99260.38
2022-11-27T16:13:33.273Z,99253.44
2022-11-27T16:16:04.875Z,99255.13
2022-11-27T16:18:32.983Z,99254.16
2022-11-27T16:21:08.571Z,99261.78
2022-11-27T16:23:36.440Z,99262.66
2022-11-27T16:26:03.878Z,99260.38
2022-11-27T16:28:31.690Z,99262.91
2022-11-27T16:31:01.343Z,99255.56
2022-11-27T16:33:29.537Z,99252.88
2022-11-27T16:35:56.883Z,99250.19
2022-11-27T16:38:23.535Z,99253.44
2022-11-27T16:40:50.189Z,99254.72
2022-11-27T16:43:17.286Z,99247.56
2022-11-27T16:45:44.019Z,99249.94
2022-11-27T16:48:10.680Z,99256.00
2022-11-27T16:50:37.270Z,99255.06
2022-11-27T16:53:03.870Z,99248.28
2022-11-27T16:55:31.585Z,99246.03
2022-11-27T16:57:58.161Z,99245.31
2022-11-27T17:00:24.784Z,99249.69
2022-11-27T17:02:51.399Z,99245.72
2022-11-27T17:05:18.167Z,99248.28
2022-11-27T17:07:44.956Z,99245.59
2022-11-27T17:10:11.661Z,99245.19
2022-11-27T17:12:38.225Z,99248.16
2022-11-27T17:15:05.387Z,99246.63
2022-11-27T17:17:36.804Z,99230.47
2022-11-27T17:20:07.384Z,99245.06
2022-11-27T17:22:34.247Z,99239.28
2022-11-27T17:25:00.851Z,99243.50
2022-11-27T17:27:27.481Z,99241.69
2022-11-27T17:29:54.157Z,99226.41
2022-11-27T17:32:21.173Z,99224.59
2022-11-27T17:34:48.789Z,99229.94
2022-11-27T17:37:15.400Z,99233.06
2022-11-27T17:39:43.712Z,99228.78
2022-11-27T17:42:13.869Z,99229.38
2022-11-27T17:44:42.881Z,99229.53
2022-11-27T17:47:09.517Z,99235.00
2022-11-27T17:49:36.177Z,99233.91
2022-11-27T17:52:06.349Z,99232.47
2022-11-27T17:54:33.686Z,99239.53
2022-11-27T17:57:00.311Z,99232.19
2022-11-27T17:59:26.903Z,99227.25
2022-11-27T18:01:53.783Z,99232.47
2022-11-27T18:04:20.507Z,99227.66
2022-11-27T18:06:47.248Z,99224.84
2022-11-27T18:09:13.915Z,99223.00
2022-11-27T18:11:40.734Z,99222.88
2022-11-27T18:14:07.421Z,99220.19
2022-11-27T18:16:37.144Z,99224.28
2022-11-27T18:19:09.911Z,99225.56
2022-11-27T18:21:37.357Z,99228.50
2022-11-27T18:27:09.242Z,99223.69
2022-11-27T18:29:37.816Z,99220.06
2022-11-27T18:32:04.761Z,99216.53
2022-11-27T18:34:31.464Z,99219.03
2022-11-27T18:36:59.688Z,99218.34
2022-11-27T18:39:27.205Z,99216.66
2022-11-27T18:41:53.858Z,99216.38
2022-11-27T18:44:20.593Z,99218.34
2022-11-27T18:46:47.216Z,99222.31
2022-11-27T18:49:13.819Z,99222.75
2022-11-27T18:51:40.726Z,99202.53
2022-11-27T18:54:07.334Z,99219.50
2022-11-27T18:56:34.073Z,99214.97
2022-11-27T18:59:03.029Z,99220.34
2022-11-27T19:01:36.712Z,99226.81
2022-11-27T19:04:05.909Z,99224.69
2022-11-27T19:06:34.605Z,99218.34
2022-11-27T19:09:01.227Z,99224.44
2022-11-27T19:11:31.043Z,99225.16
2022-11-27T19:13:58.294Z,99230.78
2022-11-27T19:16:28.237Z,99233.91
2022-11-27T19:18:59.915Z,99225.84
2022-11-27T19:21:28.622Z,99216.25
2022-11-27T19:23:57.414Z,99216.81
2022-11-27T19:26:35.513Z,99214.69
2022-11-27T19:29:05.691Z,99211.56
2022-11-27T19:31:37.695Z,99219.34
2022-11-27T19:34:07.937Z,99214.41
2022-11-27T19:36:35.446Z,99216.09
2022-11-27T19:39:08.534Z,99218.09
2022-11-27T19:41:35.643Z,99216.94
2022-11-27T19:44:04.732Z,99218.38
2022-11-27T19:46:34.877Z,99213.56
2022-11-27T19:49:04.557Z,99210.44
2022-11-27T19:51:36.543Z,99213.00
2022-11-27T19:54:08.567Z,99205.63
2022-11-27T19:56:38.751Z,99218.06
2022-11-27T19:59:06.195Z,99207.75
2022-11-27T20:01:33.034Z,99216.97
2022-11-27T20:04:00.193Z,99218.06
2022-11-27T20:06:27.811Z,99205.63
2022-11-27T20:08:59.355Z,99207.91
2022-11-27T20:11:31.154Z,99206.22
2022-11-27T20:14:00.612Z,99205.22
2022-11-27T20:16:27.766Z,99208.31
2022-11-27T20:18:54.875Z,99206.63
2022-11-27T20:21:23.510Z,99212.41
2022-11-27T20:23:51.681Z,99198.16
2022-11-27T20:26:22.044Z,99198.56
2022-11-27T20:28:50.132Z,99204.50
2022-11-27T20:31:19.810Z,99191.94
2022-11-27T20:33:46.509Z,99201.97
2022-11-27T20:36:15.643Z,99195.19
2022-11-27T20:38:42.272Z,99195.31
2022-11-27T20:41:12.011Z,99197.47
2022-11-27T20:43:39.109Z,99185.31
2022-11-27T20:46:07.707Z,99187.28
2022-11-27T20:48:34.726Z,99184.16
2022-11-27T20:51:07.292Z,99183.03
2022-11-27T20:53:34.028Z,99187.41
2022-11-27T20:56:08.265Z,99190.66
2022-11-27T20:58:36.348Z,99178.66
2022-11-27T21:01:22.819Z,99177.81
2022-11-27T21:03:51.563Z,99182.75
2022-11-27T21:06:20.454Z,99172.75
2022-11-27T21:08:47.395Z,99174.69
2022-11-27T21:11:17.327Z,99169.34
2022-11-27T21:13:44.853Z,99164.25
2022-11-27T21:16:13.559Z,99173.00
2022-11-27T21:18:40.781Z,99169.34
2022-11-27T21:21:13.561Z,99162.44
2022-11-27T21:23:41.781Z,99162.13
2022-11-27T21:26:09.654Z,99167.63
2022-11-27T21:28:36.220Z,99167.38
2022-11-27T21:31:07.186Z,99168.91
2022-11-27T21:33:34.528Z,99165.63
2022-11-27T21:36:01.125Z,99169.75
2022-11-27T21:38:27.852Z,99178.78
2022-11-27T21:40:55.069Z,99169.75
2022-11-27T21:43:21.749Z,99164.41
2022-11-27T21:45:48.644Z,99171.16
2022-11-27T21:48:15.238Z,99167.50
2022-11-27T21:50:41.793Z,99161.28
2022-11-27T21:53:08.427Z,99161.16
2022-11-27T21:55:40.480Z,99163.84
2022-11-27T21:58:07.209Z,99157.91
2022-11-27T22:00:34.085Z,99159.03
2022-11-27T22:03:00.704Z,99153.38
2022-11-27T22:05:27.384Z,99153.94
2022-11-27T22:07:54.037Z,99158.63
2022-11-27T22:10:20.641Z,99153.81
2022-11-27T22:12:47.197Z,99159.03
2022-11-27T22:15:13.797Z,99150.72
2022-11-27T22:17:40.430Z,99147.88
2022-11-27T22:20:07.616Z,99148.75
2022-11-27T22:22:34.740Z,99143.66
2022-11-27T22:25:04.261Z,99145.88
2022-11-27T22:27:31.073Z,99131.91
2022-11-27T22:29:57.635Z,99127.41
2022-11-27T22:32:24.305Z,99119.66
2022-11-27T22:34:51.324Z,99125.28
2022-11-27T22:37:17.910Z,99119.50
2022-11-27T22:39:44.628Z,99116.53
2022-11-27T22:42:12.257Z,99113.56
2022-11-27T22:44:39.408Z,99112.47
2022-11-27T22:47:06.095Z,99113.59
2022-11-27T22:49:32.695Z,99109.19
2022-11-27T22:51:59.222Z,99104.69
2022-11-27T22:54:25.772Z,99104.94
2022-11-27T22:56:52.312Z,99108.22
2022-11-27T22:59:34.869Z,99104.69
2022-11-27T23:02:03.544Z,99103.97
2022-11-27T23:04:30.212Z,99094.66
2022-11-27T23:06:56.798Z,99096.34
2022-11-27T23:09:23.816Z,99092.53
2022-11-27T23:11:50.943Z,99101.41
2022-11-27T23:14:17.897Z,99100.16
2022-11-27T23:16:44.848Z,99096.63
2022-11-27T23:19:12.131Z,99090.69
2022-11-27T23:21:39.175Z,99097.75
2022-11-27T23:24:08.631Z,99099.47
2022-11-27T23:26:35.697Z,99100.44
2022-11-27T23:29:02.901Z,99097.91
2022-11-27T23:31:37.087Z,99097.63
2022-11-27T23:34:09.849Z,99098.06
2022-11-27T23:36:36.817Z,99096.34
2022-11-27T23:39:05.573Z,99094.53
2022-11-27T23:41:32.233Z,99095.22
2022-11-27T23:43:59.128Z,99089.44
2022-11-27T23:46:27.971Z,99088.03
2022-11-27T23:48:55.955Z,99096.63
2022-11-27T23:51:25.946Z,99093.22
2022-11-27T23:53:53.536Z,99098.19
2022-11-27T23:56:26.332Z,99098.06
2022-11-27T23:58:54.500Z,99104.53
